createdAt,value
2018-09-19T00:02:30.779Z,74.93
2018-09-19T00:05:54.734Z,74.01
2018-09-19T00:09:18.768Z,74.82
2018-09-19T00:12:42.753Z,76.91
2018-09-19T00:16:06.851Z,76.24
2018-09-19T00:19:30.909Z,78.85
2018-09-19T00:22:54.889Z,78.27
2018-09-19T00:26:18.859Z,78.96
2018-09-19T00:29:42.867Z,77.70
2018-09-19T00:33:06.951Z,78.65
2018-09-19T00:36:31.984Z,79.78
2018-09-19T00:39:56.804Z,79.48
2018-09-19T00:43:20.886Z,80.22
2018-09-19T00:46:45.941Z,79.21
2018-09-19T00:50:09.928Z,79.11
2018-09-19T00:53:33.909Z,78.49
2018-09-19T00:56:57.932Z,80.52
2018-09-19T01:00:22.067Z,80.52
2018-09-19T01:03:46.096Z,79.97
2018-09-19T01:07:10.074Z,80.28
2018-09-19T01:10:34.112Z,80.72
2018-09-19T01:13:59.100Z,81.62
2018-09-19T01:17:23.096Z,80.82
2018-09-19T01:20:47.128Z,80.83
2018-09-19T01:24:11.121Z,79.63
2018-09-19T01:27:35.110Z,80.34
2018-09-19T01:30:59.098Z,80.95
2018-09-19T01:34:24.108Z,81.72
2018-09-19T01:37:48.124Z,81.67
2018-09-19T01:41:12.187Z,79.75
2018-09-19T01:44:36.182Z,80.19
2018-09-19T01:48:00.136Z,81.46
2018-09-19T01:51:24.233Z,81.56
2018-09-19T01:54:48.235Z,82.46
2018-09-19T01:58:12.307Z,82.23
2018-09-19T02:01:36.356Z,83.43
2018-09-19T02:05:00.416Z,82.95
2018-09-19T02:08:24.454Z,80.65
2018-09-19T02:11:48.998Z,81.92
2018-09-19T02:15:13.020Z,82.78
2018-09-19T02:18:37.008Z,83.76
2018-09-19T02:22:01.018Z,82.86
2018-09-19T02:25:25.031Z,83.55
2018-09-19T02:28:49.009Z,83.01
2018-09-19T02:32:14.012Z,82.30
2018-09-19T02:35:38.041Z,82.88
2018-09-19T02:39:02.105Z,82.70
2018-09-19T02:42:26.080Z,85.08
2018-09-19T02:45:50.133Z,85.77
2018-09-19T02:49:14.162Z,84.37
2018-09-19T02:52:38.150Z,84.65
2018-09-19T02:56:02.135Z,85.07
2018-09-19T02:59:26.226Z,84.80
2018-09-19T03:02:50.751Z,85.27
2018-09-19T03:06:14.769Z,84.90
2018-09-19T03:09:38.829Z,86.53
2018-09-19T03:13:02.869Z,85.58
2018-09-19T03:16:26.882Z,85.84
2018-09-19T03:19:50.933Z,86.21
2018-09-19T03:23:14.964Z,85.99
2018-09-19T03:26:39.074Z,85.78
2018-09-19T03:30:03.109Z,85.27
2018-09-19T03:33:27.097Z,85.95
2018-09-19T03:36:51.134Z,85.31
2018-09-19T03:40:15.217Z,84.96
2018-09-19T03:43:39.320Z,86.47
2018-09-19T03:47:03.381Z,86.55
2018-09-19T03:50:27.408Z,86.67
2018-09-19T03:53:51.422Z,87.07
2018-09-19T03:57:16.548Z,87.58
2018-09-19T04:00:40.586Z,87.50
2018-09-19T04:04:04.668Z,88.00
2018-09-19T04:07:29.712Z,87.91
2018-09-19T04:10:53.960Z,87.31
2018-09-19T04:14:17.956Z,87.95
2018-09-19T04:17:43.100Z,87.04
2018-09-19T04:21:07.014Z,87.03
2018-09-19T04:24:31.020Z,87.21
2018-09-19T04:27:55.360Z,88.46
2018-09-19T04:31:20.750Z,88.45
2018-09-19T04:34:44.982Z,88.90
2018-09-19T04:38:08.991Z,89.25
2018-09-19T04:41:32.963Z,88.45
2018-09-19T04:44:58.258Z,87.34
2018-09-19T04:48:22.412Z,87.20
2018-09-19T04:51:46.362Z,87.88
2018-09-19T04:55:10.384Z,87.32
2018-09-19T04:58:34.474Z,87.15
2018-09-19T05:01:58.572Z,87.84
2018-09-19T05:05:22.606Z,85.04
2018-09-19T05:08:46.716Z,85.15
2018-09-19T05:12:10.749Z,86.94
2018-09-19T05:15:34.800Z,86.64
2018-09-19T05:18:58.792Z,86.74
2018-09-19T05:22:22.800Z,87.06
2018-09-19T05:25:46.885Z,87.90
2018-09-19T05:29:10.830Z,88.23
2018-09-19T05:32:34.846Z,87.23
2018-09-19T05:35:58.856Z,85.79
2018-09-19T05:39:22.900Z,86.34
2018-09-19T05:42:47.310Z,88.17
2018-09-19T05:46:11.434Z,86.72
2018-09-19T05:49:35.465Z,87.24
2018-09-19T05:52:59.386Z,86.48
2018-09-19T05:56:23.351Z,83.82
2018-09-19T05:59:47.409Z,85.42
2018-09-19T06:03:11.400Z,85.85
2018-09-19T06:06:35.384Z,85.70
2018-09-19T06:09:59.465Z,85.80
2018-09-19T06:13:23.473Z,85.95
2018-09-19T06:16:47.637Z,83.88
2018-09-19T06:20:11.604Z,84.68
2018-09-19T06:23:35.733Z,83.84
2018-09-19T06:26:59.813Z,85.28
2018-09-19T06:30:23.786Z,84.56
2018-09-19T06:33:48.877Z,84.50
2018-09-19T06:37:12.873Z,84.84
2018-09-19T06:40:36.977Z,82.90
2018-09-19T06:44:00.888Z,82.53
2018-09-19T06:47:24.917Z,82.79
2018-09-19T06:50:48.902Z,82.04
2018-09-19T06:54:13.013Z,81.54
2018-09-19T06:57:37.030Z,80.42
2018-09-19T07:01:00.974Z,81.32
2018-09-19T07:04:25.026Z,81.08
2018-09-19T07:07:49.308Z,80.67
2018-09-19T07:11:13.362Z,80.51
2018-09-19T07:14:37.428Z,80.83
2018-09-19T07:18:02.400Z,80.17
2018-09-19T07:21:26.418Z,79.80
2018-09-19T07:24:50.404Z,78.53
2018-09-19T07:28:14.473Z,79.87
2018-09-19T07:31:38.468Z,78.75
2018-09-19T07:35:03.773Z,79.85
2018-09-19T07:38:27.845Z,79.37
2018-09-19T07:41:52.119Z,80.31
2018-09-19T07:45:16.249Z,79.33
2018-09-19T07:48:40.349Z,79.45
2018-09-19T07:52:04.728Z,79.44
2018-09-19T07:55:28.958Z,77.27
2018-09-19T07:58:53.072Z,77.93
2018-09-19T08:02:17.082Z,75.33
2018-09-19T08:05:41.135Z,75.07
2018-09-19T08:09:13.024Z,76.18
2018-09-19T08:12:37.072Z,75.46
2018-09-19T08:16:02.399Z,75.27
2018-09-19T08:19:27.708Z,75.60
2018-09-19T08:22:51.725Z,74.01
2018-09-19T08:26:15.714Z,72.43
2018-09-19T08:29:39.732Z,73.87
2018-09-19T08:33:03.787Z,73.65
2018-09-19T08:36:27.773Z,72.85
2018-09-19T08:39:51.795Z,71.64
2018-09-19T08:43:15.782Z,67.05
2018-09-19T08:46:39.765Z,69.06
2018-09-19T08:50:03.768Z,69.54
2018-09-19T08:53:27.750Z,69.31
2018-09-19T08:56:51.806Z,69.37
2018-09-19T09:00:15.761Z,68.87
2018-09-19T09:03:39.700Z,66.38
2018-09-19T09:07:03.713Z,65.53
2018-09-19T09:10:27.761Z,64.66
2018-09-19T09:13:51.775Z,64.94
2018-09-19T09:17:17.031Z,66.31
2018-09-19T09:20:41.269Z,65.99
2018-09-19T09:24:05.175Z,66.83
2018-09-19T09:27:29.217Z,66.91
2018-09-19T09:30:54.392Z,63.91
2018-09-19T09:34:18.544Z,64.94
2018-09-19T09:37:42.445Z,63.63
2018-09-19T09:41:06.608Z,63.02
2018-09-19T09:44:30.725Z,62.60
2018-09-19T09:47:54.712Z,62.43
2018-09-19T09:51:18.665Z,61.33
2018-09-19T09:54:42.710Z,60.59
2018-09-19T09:58:07.263Z,60.79
2018-09-19T10:01:32.264Z,60.19
2018-09-19T10:04:56.283Z,58.65
2018-09-19T10:08:20.210Z,59.39
2018-09-19T10:11:44.212Z,59.08
2018-09-19T10:15:08.256Z,58.53
2018-09-19T10:18:32.224Z,57.62
2018-09-19T10:21:56.262Z,58.38
2018-09-19T10:25:20.470Z,58.72
2018-09-19T10:28:44.470Z,57.60
2018-09-19T10:32:08.621Z,56.08
2018-09-19T10:35:33.666Z,57.78
2018-09-19T10:38:58.630Z,57.15
2018-09-19T10:42:22.651Z,56.33
2018-09-19T10:45:46.991Z,56.75
2018-09-19T10:49:11.558Z,56.45
2018-09-19T10:52:35.535Z,55.45
2018-09-19T10:56:00.186Z,54.56
2018-09-19T10:59:24.328Z,55.76
2018-09-19T11:02:48.562Z,54.83
2018-09-19T11:06:12.824Z,55.97
2018-09-19T11:09:37.242Z,53.76
2018-09-19T11:13:01.297Z,54.47
2018-09-19T11:16:25.437Z,54.93
2018-09-19T11:19:49.395Z,54.87
2018-09-19T11:23:13.556Z,54.36
2018-09-19T11:26:38.334Z,53.26
2018-09-19T11:30:02.317Z,52.96
2018-09-19T11:33:26.404Z,53.24
2018-09-19T11:36:50.447Z,53.26
2018-09-19T11:40:15.580Z,53.35
2018-09-19T11:43:39.641Z,52.12
2018-09-19T11:47:03.635Z,51.43
2018-09-19T11:50:27.699Z,51.94
2018-09-19T11:53:51.707Z,52.49
2018-09-19T12:05:12.690Z,51.38
2018-09-19T12:08:36.665Z,50.60
2018-09-19T12:12:00.689Z,50.38
2018-09-19T12:15:24.602Z,51.11
2018-09-19T12:18:48.601Z,51.05
2018-09-19T12:22:12.561Z,51.23
2018-09-19T12:25:36.573Z,51.36
2018-09-19T12:29:00.483Z,48.67
2018-09-19T12:32:24.445Z,49.50
2018-09-19T12:35:48.396Z,49.02
2018-09-19T12:39:12.662Z,48.58
2018-09-19T12:42:36.810Z,49.78
2018-09-19T12:46:00.807Z,49.75
2018-09-19T12:49:24.812Z,50.20
2018-09-19T12:52:48.792Z,47.88
2018-09-19T12:56:12.748Z,47.74
2018-09-19T12:59:37.494Z,47.00
2018-09-19T13:03:01.418Z,47.83
2018-09-19T13:06:25.561Z,47.43
2018-09-19T13:09:49.534Z,47.18
2018-09-19T13:13:13.715Z,47.32
2018-09-19T13:16:37.788Z,44.74
2018-09-19T13:20:01.773Z,46.57
2018-09-19T13:23:26.175Z,46.29
2018-09-19T13:26:50.128Z,46.03
2018-09-19T13:30:14.112Z,45.33
2018-09-19T13:33:38.271Z,45.72
2018-09-19T13:37:02.465Z,45.17
2018-09-19T13:40:26.487Z,45.54
2018-09-19T13:43:50.628Z,46.06
2018-09-19T13:47:15.180Z,46.29
2018-09-19T13:51:02.344Z,47.54
2018-09-19T13:54:26.446Z,47.06
2018-09-19T13:57:50.514Z,46.76
2018-09-19T14:01:14.415Z,44.05
2018-09-19T14:04:38.446Z,44.20
2018-09-19T14:08:02.417Z,44.67
2018-09-19T14:11:26.476Z,43.04
2018-09-19T14:14:50.456Z,42.77
2018-09-19T14:18:14.586Z,42.95
2018-09-19T14:21:38.742Z,43.53
2018-09-19T14:25:02.808Z,44.26
2018-09-19T14:28:28.861Z,44.40
2018-09-19T14:31:52.858Z,45.55
2018-09-19T14:35:16.805Z,45.96
2018-09-19T14:38:40.947Z,43.13
2018-09-19T14:42:04.914Z,44.69
2018-09-19T14:45:29.115Z,45.40
2018-09-19T14:48:53.275Z,45.18
2018-09-19T14:52:18.525Z,46.32
2018-09-19T14:55:42.511Z,43.07
2018-09-19T14:59:06.895Z,42.71
2018-09-19T15:02:30.946Z,44.19
2018-09-19T15:05:55.006Z,43.36
2018-09-19T15:09:19.046Z,43.12
2018-09-19T15:12:43.060Z,44.85
2018-09-19T15:16:08.240Z,43.62
2018-09-19T15:19:32.271Z,45.38
2018-09-19T15:22:56.972Z,44.73
2018-09-19T15:26:21.330Z,39.94
2018-09-19T15:29:46.010Z,41.93
2018-09-19T15:33:10.276Z,42.02
2018-09-19T15:36:34.277Z,41.25
2018-09-19T15:39:58.228Z,41.99
2018-09-19T15:43:22.534Z,41.83
2018-09-19T15:46:46.541Z,42.24
2018-09-19T15:50:10.617Z,40.85
2018-09-19T15:53:34.637Z,42.53
2018-09-19T15:56:58.964Z,42.88
2018-09-19T16:00:23.017Z,44.63
2018-09-19T16:03:47.501Z,44.90
2018-09-19T16:07:11.516Z,44.38
2018-09-19T16:10:35.521Z,44.73
2018-09-19T16:13:59.527Z,44.79
2018-09-19T16:17:23.495Z,45.74
2018-09-19T16:20:47.631Z,48.30
2018-09-19T16:24:11.706Z,45.56
2018-09-19T16:27:35.802Z,44.94
2018-09-19T16:30:59.974Z,46.78
2018-09-19T16:34:24.000Z,48.96
2018-09-19T16:37:47.978Z,49.80
2018-09-19T16:41:11.950Z,50.14
2018-09-19T16:44:35.963Z,50.17
2018-09-19T16:48:00.006Z,50.45
2018-09-19T16:51:24.121Z,50.81
2018-09-19T16:54:48.100Z,49.96
2018-09-19T16:58:12.191Z,50.93
2018-09-19T17:01:36.288Z,52.60
2018-09-19T17:05:01.429Z,52.89
2018-09-19T17:08:25.402Z,53.18
2018-09-19T17:11:49.272Z,53.70
2018-09-19T17:15:13.356Z,54.42
2018-09-19T17:18:37.341Z,54.54
2018-09-19T17:22:01.377Z,56.03
2018-09-19T17:25:25.375Z,55.01
2018-09-19T17:28:49.274Z,55.96
2018-09-19T17:32:13.218Z,55.97
2018-09-19T17:35:37.156Z,57.50
2018-09-19T17:39:00.998Z,57.69
2018-09-19T17:42:24.895Z,56.58
2018-09-19T17:45:49.208Z,57.70
2018-09-19T17:49:13.150Z,57.63
2018-09-19T17:52:36.995Z,59.02
2018-09-19T17:56:00.860Z,59.50
2018-09-19T17:59:24.836Z,59.40
2018-09-19T18:02:48.815Z,59.74
2018-09-19T18:06:14.212Z,60.81
2018-09-19T18:09:38.663Z,61.25
2018-09-19T18:13:02.973Z,61.37
2018-09-19T18:16:27.561Z,61.07
2018-09-19T18:19:51.793Z,62.65
2018-09-19T18:23:16.121Z,62.33
2018-09-19T18:26:40.394Z,63.71
2018-09-19T18:30:04.607Z,63.57
2018-09-19T18:33:28.803Z,63.51
2018-09-19T18:36:52.992Z,64.98
2018-09-19T18:40:17.135Z,65.88
2018-09-19T18:43:41.175Z,65.95
2018-09-19T18:47:05.266Z,66.38
2018-09-19T18:50:29.315Z,65.66
2018-09-19T18:53:53.395Z,65.94
2018-09-19T18:57:17.389Z,65.73
2018-09-19T19:00:41.423Z,66.21
2018-09-19T19:04:05.475Z,66.04
2018-09-19T19:07:29.486Z,66.56
2018-09-19T19:10:53.660Z,66.27
2018-09-19T19:14:17.993Z,68.41
2018-09-19T19:17:42.152Z,68.76
2018-09-19T19:21:06.299Z,68.14
2018-09-19T19:24:30.791Z,67.79
2018-09-19T19:27:54.897Z,67.90
2018-09-19T19:31:18.986Z,68.19
2018-09-19T19:34:43.173Z,67.45
2018-09-19T19:38:07.218Z,66.84
2018-09-19T19:41:31.136Z,66.44
2018-09-19T19:44:55.218Z,64.77
2018-09-19T19:48:19.136Z,64.98
2018-09-19T19:51:43.299Z,65.60
2018-09-19T19:55:08.338Z,67.29
2018-09-19T19:58:32.419Z,68.43
2018-09-19T20:01:56.504Z,69.11
2018-09-19T20:05:20.518Z,68.86
2018-09-19T20:08:45.201Z,67.47
2018-09-19T20:12:09.237Z,66.96
2018-09-19T20:15:33.277Z,67.89
2018-09-19T20:18:57.455Z,68.39
2018-09-19T20:22:21.481Z,68.60
2018-09-19T20:25:45.637Z,68.60
2018-09-19T20:29:09.983Z,68.28
2018-09-19T20:32:34.307Z,69.56
2018-09-19T20:35:58.396Z,69.19
2018-09-19T20:39:22.508Z,68.60
2018-09-19T20:42:46.643Z,71.15
2018-09-19T20:46:10.839Z,70.97
2018-09-19T20:49:35.815Z,72.07
2018-09-19T20:52:59.825Z,72.52
2018-09-19T20:56:23.853Z,72.75
2018-09-19T20:59:47.997Z,73.40
2018-09-19T21:03:12.242Z,74.56
2018-09-19T21:06:36.302Z,71.46
2018-09-19T21:10:00.362Z,70.86
2018-09-19T21:13:24.326Z,70.12
2018-09-19T21:16:48.388Z,71.13
2018-09-19T21:20:12.397Z,71.35
2018-09-19T21:23:36.364Z,72.05
2018-09-19T21:27:00.391Z,72.84
2018-09-19T21:30:24.373Z,73.63
2018-09-19T21:33:48.364Z,72.87
2018-09-19T21:37:12.384Z,71.29
2018-09-19T21:40:36.383Z,72.38
2018-09-19T21:44:00.358Z,73.65
2018-09-19T21:47:24.349Z,73.64
2018-09-19T21:50:48.384Z,75.78
2018-09-19T21:54:12.379Z,75.62
2018-09-19T21:57:36.389Z,75.56
2018-09-19T22:01:05.507Z,75.99
2018-09-19T22:04:29.569Z,76.20
2018-09-19T22:07:53.608Z,76.63
2018-09-19T22:11:17.622Z,77.11
2018-09-19T22:14:42.982Z,77.57
2018-09-19T22:18:07.057Z,77.23
2018-09-19T22:21:31.104Z,78.25
2018-09-19T22:24:55.280Z,78.90
2018-09-19T22:28:31.367Z,78.68
2018-09-19T22:31:59.390Z,77.72
2018-09-19T22:35:23.554Z,78.16
2018-09-19T22:38:47.558Z,78.41
2018-09-19T22:42:11.732Z,79.14
2018-09-19T22:45:35.771Z,78.71
2018-09-19T22:48:59.860Z,79.10
2018-09-19T22:52:23.904Z,80.39
2018-09-19T22:55:47.944Z,79.95
2018-09-19T22:59:11.915Z,81.19
2018-09-19T23:02:35.899Z,80.47
2018-09-19T23:06:00.053Z,80.25
2018-09-19T23:09:24.105Z,79.96
2018-09-19T23:12:48.094Z,80.14
2018-09-19T23:16:12.069Z,81.07
2018-09-19T23:19:36.259Z,81.25
2018-09-19T23:23:00.279Z,80.32
2018-09-19T23:26:24.347Z,80.76
2018-09-19T23:29:48.500Z,80.07
2018-09-19T23:33:12.466Z,81.18
2018-09-19T23:36:36.467Z,81.29
2018-09-19T23:40:00.429Z,81.23
2018-09-19T23:43:24.636Z,81.21
2018-09-19T23:46:48.640Z,80.86
2018-09-19T23:50:12.674Z,80.16
2018-09-19T23:53:36.677Z,81.50
2018-09-19T23:57:00.864Z,81.88
